createdAt,value
2022-08-14T00:01:24.072Z,24.29
2022-08-14T00:03:50.902Z,24.24
2022-08-14T00:06:28.683Z,24.23
2022-08-14T00:08:59.194Z,24.17
2022-08-14T00:11:31.233Z,24.10
2022-08-14T00:14:01.434Z,24.04
2022-08-14T00:16:41.198Z,23.97
2022-08-14T00:19:21.346Z,23.96
2022-08-14T00:21:52.017Z,23.89
2022-08-14T00:24:28.211Z,23.87
2022-08-14T00:26:55.798Z,23.82
2022-08-14T00:29:25.356Z,23.77
2022-08-14T00:31:55.283Z,23.72
2022-08-14T00:34:36.360Z,23.65
2022-08-14T00:37:05.679Z,23.61
2022-08-14T00:39:32.545Z,23.56
2022-08-14T00:41:59.240Z,23.53
2022-08-14T00:44:32.443Z,23.45
2022-08-14T00:47:02.570Z,23.42
2022-08-14T00:49:37.737Z,23.38
2022-08-14T00:52:09.685Z,23.32
2022-08-14T00:54:42.447Z,23.30
2022-08-14T00:57:09.375Z,23.26
2022-08-14T00:59:36.588Z,23.24
2022-08-14T01:02:05.800Z,23.21
2022-08-14T01:04:38.360Z,23.18
2022-08-14T01:07:22.479Z,23.14
2022-08-14T01:09:51.567Z,23.10
2022-08-14T01:12:27.280Z,23.04
2022-08-14T01:14:58.610Z,23.00
2022-08-14T01:17:49.682Z,22.93
2022-08-14T01:20:39.568Z,22.86
2022-08-14T01:23:10.404Z,22.85
2022-08-14T01:25:43.811Z,22.82
2022-08-14T01:28:34.212Z,22.78
2022-08-14T01:30:59.760Z,22.77
2022-08-14T01:33:31.075Z,22.69
2022-08-14T01:36:21.185Z,22.64
2022-08-14T01:38:51.463Z,22.64
2022-08-14T01:41:23.056Z,22.64
2022-08-14T01:44:01.515Z,22.59
2022-08-14T01:46:36.994Z,22.55
2022-08-14T01:49:07.608Z,22.59
2022-08-14T01:51:35.460Z,22.55
2022-08-14T01:54:24.453Z,22.47
2022-08-14T01:57:06.355Z,22.42
2022-08-14T01:59:37.589Z,22.45
2022-08-14T02:02:18.936Z,22.43
2022-08-14T02:04:56.295Z,22.36
2022-08-14T02:07:53.235Z,22.35
2022-08-14T02:10:15.784Z,22.36
2022-08-14T02:12:46.195Z,22.33
2022-08-14T02:15:21.752Z,22.33
2022-08-14T02:17:49.910Z,22.30
2022-08-14T02:20:20.002Z,22.26
2022-08-14T02:22:52.073Z,22.21
2022-08-14T02:25:21.137Z,22.15
2022-08-14T02:28:25.236Z,22.12
2022-08-14T02:30:38.452Z,22.07
2022-08-14T02:33:07.210Z,22.06
2022-08-14T02:35:33.714Z,21.98
2022-08-14T02:38:11.820Z,21.99
2022-08-14T02:40:54.496Z,21.98
2022-08-14T02:43:22.709Z,21.95
2022-08-14T02:45:49.596Z,21.95
2022-08-14T02:49:02.725Z,21.97
2022-08-14T02:51:07.166Z,21.95
2022-08-14T02:53:37.373Z,21.93
2022-08-14T02:56:29.532Z,21.93
2022-08-14T02:58:55.539Z,21.92
2022-08-14T03:01:24.039Z,21.90
2022-08-14T03:03:53.195Z,21.86
2022-08-14T03:06:35.063Z,21.85
2022-08-14T03:09:11.601Z,21.84
2022-08-14T03:11:39.717Z,21.82
2022-08-14T03:14:12.321Z,21.80
2022-08-14T03:16:45.441Z,21.73
2022-08-14T03:19:16.087Z,21.68
2022-08-14T03:21:46.711Z,21.69
2022-08-14T03:24:23.188Z,21.65
2022-08-14T03:26:56.128Z,21.67
2022-08-14T03:29:26.551Z,21.63
2022-08-14T03:31:53.456Z,21.62
2022-08-14T03:34:24.354Z,21.60
2022-08-14T03:37:38.963Z,21.56
2022-08-14T03:39:53.084Z,21.54
2022-08-14T03:42:20.014Z,21.50
2022-08-14T03:45:20.312Z,21.43
2022-08-14T03:47:46.541Z,21.39
2022-08-14T03:50:27.953Z,21.35
2022-08-14T03:53:02.779Z,21.33
2022-08-14T03:55:30.233Z,21.31
2022-08-14T03:57:57.716Z,21.28
2022-08-14T04:00:42.730Z,21.23
2022-08-14T04:03:13.275Z,21.20
2022-08-14T04:05:48.715Z,21.19
2022-08-14T04:08:29.158Z,21.19
2022-08-14T04:11:01.074Z,21.20
2022-08-14T04:13:31.649Z,21.21
2022-08-14T04:16:06.831Z,21.19
2022-08-14T04:18:43.446Z,21.17
2022-08-14T04:21:11.159Z,21.14
2022-08-14T04:23:38.768Z,21.12
2022-08-14T04:26:14.623Z,21.10
2022-08-14T04:29:06.971Z,21.07
2022-08-14T04:33:00.066Z,21.03
2022-08-14T04:34:20.986Z,21.01
2022-08-14T04:37:12.411Z,21.01
2022-08-14T04:39:58.745Z,21.00
2022-08-14T04:42:51.378Z,20.98
2022-08-14T04:45:20.798Z,20.95
2022-08-14T04:48:05.606Z,20.94
2022-08-14T04:50:43.996Z,20.92
2022-08-14T04:53:18.947Z,20.94
2022-08-14T04:55:51.592Z,20.94
2022-08-14T04:58:32.763Z,20.93
2022-08-14T05:01:01.451Z,20.96
2022-08-14T05:03:31.062Z,20.97
2022-08-14T05:06:00.179Z,20.96
2022-08-14T05:08:32.169Z,20.90
2022-08-14T05:11:13.640Z,20.95
2022-08-14T05:14:16.650Z,20.94
2022-08-14T05:16:31.539Z,20.95
2022-08-14T05:19:18.183Z,21.03
2022-08-14T05:21:57.280Z,21.03
2022-08-14T05:24:25.707Z,21.07
2022-08-14T05:26:52.185Z,21.10
2022-08-14T05:29:19.935Z,21.12
2022-08-14T05:31:47.282Z,21.20
2022-08-14T05:34:13.965Z,21.29
2022-08-14T05:36:42.689Z,21.36
2022-08-14T05:39:09.217Z,21.48
2022-08-14T05:41:52.764Z,21.61
2022-08-14T05:44:20.515Z,21.74
2022-08-14T05:46:47.017Z,21.84
2022-08-14T05:49:14.312Z,21.91
2022-08-14T05:51:41.589Z,22.01
2022-08-14T05:54:11.317Z,22.10
2022-08-14T05:56:40.266Z,22.19
2022-08-14T05:59:07.243Z,22.28
2022-08-14T06:01:34.326Z,22.34
2022-08-14T06:04:01.854Z,22.55
2022-08-14T06:06:35.086Z,22.64
2022-08-14T06:09:04.811Z,22.69
2022-08-14T06:11:31.440Z,22.72
2022-08-14T06:13:59.404Z,22.77
2022-08-14T06:16:26.160Z,22.84
2022-08-14T06:18:53.279Z,22.88
2022-08-14T06:21:22.005Z,22.96
2022-08-14T06:23:49.357Z,23.00
2022-08-14T06:26:16.325Z,23.12
2022-08-14T06:28:47.433Z,23.22
2022-08-14T06:31:19.063Z,23.25
2022-08-14T06:35:04.399Z,23.30
2022-08-14T06:36:33.592Z,23.37
2022-08-14T06:39:00.137Z,23.47
2022-08-14T06:41:56.574Z,23.54
2022-08-14T06:44:13.045Z,23.65
2022-08-14T06:46:39.551Z,23.75
2022-08-14T06:49:06.259Z,23.85
2022-08-14T06:51:38.684Z,23.95
2022-08-14T06:54:11.253Z,24.06
2022-08-14T06:56:38.659Z,24.14
2022-08-14T06:59:06.045Z,24.22
2022-08-14T07:01:51.511Z,24.31
2022-08-14T07:04:41.724Z,24.39
2022-08-14T07:07:08.246Z,24.49
2022-08-14T07:09:43.633Z,24.60
2022-08-14T07:12:54.926Z,24.71
2022-08-14T07:15:05.908Z,24.81
2022-08-14T07:17:36.287Z,24.92
2022-08-14T07:20:04.404Z,25.04
2022-08-14T07:22:33.060Z,25.15
2022-08-14T07:25:16.857Z,25.27
2022-08-14T07:27:43.382Z,25.38
2022-08-14T07:30:33.715Z,25.47
2022-08-14T07:32:57.234Z,25.63
2022-08-14T07:35:23.726Z,25.76
2022-08-14T07:37:52.683Z,25.86
2022-08-14T07:40:27.411Z,25.93
2022-08-14T07:42:56.829Z,26.03
2022-08-14T07:45:23.543Z,26.10
2022-08-14T07:47:50.129Z,26.13
2022-08-14T07:50:20.151Z,26.18
2022-08-14T07:52:49.239Z,26.26
2022-08-14T07:55:21.010Z,26.37
2022-08-14T07:57:48.163Z,26.42
2022-08-14T08:00:33.448Z,26.43
2022-08-14T08:03:00.918Z,26.51
2022-08-14T08:05:27.952Z,26.59
2022-08-14T08:07:54.776Z,26.67
2022-08-14T08:11:02.525Z,26.79
2022-08-14T08:13:23.943Z,26.90
2022-08-14T08:15:56.731Z,26.99
2022-08-14T08:18:27.740Z,27.08
2022-08-14T08:20:59.365Z,27.15
2022-08-14T08:23:39.987Z,27.22
2022-08-14T08:26:09.986Z,27.28
2022-08-14T08:28:36.438Z,27.33
2022-08-14T08:31:06.464Z,27.47
2022-08-14T08:33:37.670Z,27.55
2022-08-14T08:36:13.003Z,27.63
2022-08-14T08:39:18.382Z,27.69
2022-08-14T08:41:44.233Z,27.81
2022-08-14T08:44:17.076Z,27.97
2022-08-14T08:46:58.314Z,28.13
2022-08-14T08:49:36.359Z,28.27
2022-08-14T08:52:24.285Z,28.34
2022-08-14T08:54:55.831Z,28.36
2022-08-14T08:57:22.344Z,28.40
2022-08-14T08:59:55.198Z,28.53
2022-08-14T09:02:26.195Z,28.66
2022-08-14T09:05:02.269Z,28.70
2022-08-14T09:07:28.860Z,28.67
2022-08-14T09:10:00.158Z,28.80
2022-08-14T09:12:32.469Z,28.94
2022-08-14T09:15:12.023Z,29.07
2022-08-14T09:17:41.412Z,29.18
2022-08-14T09:20:11.589Z,29.29
2022-08-14T09:22:47.740Z,29.38
2022-08-14T09:25:19.854Z,29.48
2022-08-14T09:28:05.598Z,29.59
2022-08-14T09:30:35.009Z,29.72
2022-08-14T09:33:12.605Z,29.81
2022-08-14T09:36:10.619Z,29.85
2022-08-14T09:38:47.536Z,29.90
2022-08-14T09:42:21.746Z,29.94
2022-08-14T09:45:12.468Z,30.09
2022-08-14T09:47:52.373Z,30.16
2022-08-14T09:50:33.072Z,30.22
2022-08-14T09:53:05.767Z,30.36
2022-08-14T09:55:44.612Z,30.54
2022-08-14T09:58:23.017Z,30.70
2022-08-14T10:01:00.633Z,30.84
2022-08-14T10:03:28.674Z,31.03
2022-08-14T10:06:06.180Z,31.15
2022-08-14T10:08:50.688Z,31.31
2022-08-14T10:11:19.417Z,31.32
2022-08-14T10:13:54.188Z,31.44
2022-08-14T10:16:33.413Z,31.48
2022-08-14T10:19:09.531Z,31.49
2022-08-14T10:21:58.854Z,31.58
2022-08-14T10:24:40.053Z,31.77
2022-08-14T10:27:23.661Z,31.76
2022-08-14T10:29:52.658Z,31.87
2022-08-14T10:32:28.789Z,31.88
2022-08-14T10:35:13.594Z,31.85
2022-08-14T10:37:48.031Z,32.02
2022-08-14T10:40:43.723Z,32.13
2022-08-14T10:43:26.675Z,32.19
2022-08-14T10:46:21.739Z,32.28
2022-08-14T10:49:02.880Z,32.40
2022-08-14T10:51:34.182Z,32.33
2022-08-14T10:54:35.254Z,32.39
2022-08-14T10:57:12.255Z,32.46
2022-08-14T10:59:55.608Z,32.64
2022-08-14T11:02:44.613Z,32.83
2022-08-14T11:05:19.305Z,32.84
2022-08-14T11:07:56.423Z,33.05
2022-08-14T11:10:27.797Z,33.14
2022-08-14T11:12:57.801Z,33.19
2022-08-14T11:15:27.777Z,33.21
2022-08-14T11:17:55.875Z,33.11
2022-08-14T11:20:30.821Z,33.25
2022-08-14T11:23:00.933Z,33.43
2022-08-14T11:25:36.762Z,33.52
2022-08-14T11:28:18.680Z,33.69
2022-08-14T11:30:53.843Z,33.72
2022-08-14T11:33:29.103Z,33.70
2022-08-14T11:36:00.446Z,33.70
2022-08-14T11:38:35.567Z,33.74
2022-08-14T11:41:05.496Z,33.91
2022-08-14T11:43:48.167Z,34.06
2022-08-14T11:46:30.601Z,34.20
2022-08-14T11:49:05.673Z,34.32
2022-08-14T11:51:50.823Z,34.55
2022-08-14T11:54:34.561Z,34.67
2022-08-14T11:57:02.499Z,34.64
2022-08-14T11:59:33.720Z,34.67
2022-08-14T12:03:01.731Z,34.83
2022-08-14T12:05:04.184Z,34.56
2022-08-14T12:07:31.115Z,34.37
2022-08-14T12:09:59.514Z,34.42
2022-08-14T12:12:45.361Z,34.60
2022-08-14T12:15:13.964Z,34.22
2022-08-14T12:17:51.744Z,34.01
2022-08-14T12:20:29.866Z,34.13
2022-08-14T12:23:00.692Z,34.50
2022-08-14T12:25:28.200Z,34.80
2022-08-14T12:27:59.218Z,34.93
2022-08-14T12:30:42.608Z,34.83
2022-08-14T12:33:25.665Z,35.10
2022-08-14T12:35:57.497Z,35.33
2022-08-14T12:38:45.040Z,35.60
2022-08-14T12:41:20.753Z,35.95
2022-08-14T12:43:59.666Z,36.12
2022-08-14T12:46:33.731Z,36.19
2022-08-14T12:49:29.291Z,36.32
2022-08-14T12:51:58.624Z,36.24
2022-08-14T12:54:28.205Z,35.97
2022-08-14T12:57:08.224Z,35.70
2022-08-14T12:59:37.289Z,35.97
2022-08-14T13:02:26.406Z,36.11
2022-08-14T13:04:57.996Z,36.15
2022-08-14T13:07:32.090Z,36.33
2022-08-14T13:09:59.765Z,36.55
2022-08-14T13:12:33.468Z,36.42
2022-08-14T13:15:08.662Z,36.55
2022-08-14T13:17:56.681Z,36.45
2022-08-14T13:20:29.790Z,36.47
2022-08-14T13:22:59.782Z,36.59
2022-08-14T13:25:27.848Z,36.72
2022-08-14T13:27:59.013Z,36.95
2022-08-14T13:30:26.311Z,36.67
2022-08-14T13:32:57.804Z,36.66
2022-08-14T13:35:25.797Z,36.90
2022-08-14T13:37:53.751Z,37.14
2022-08-14T13:40:26.496Z,37.33
2022-08-14T13:42:56.721Z,37.62
2022-08-14T13:45:24.108Z,37.62
2022-08-14T13:48:10.757Z,37.66
2022-08-14T13:50:59.394Z,37.79
2022-08-14T13:53:33.404Z,37.89
2022-08-14T13:56:01.563Z,37.97
2022-08-14T13:58:34.674Z,37.63
2022-08-14T14:01:02.680Z,37.48
2022-08-14T14:03:35.195Z,37.51
2022-08-14T14:06:03.439Z,37.48
2022-08-14T14:08:46.410Z,37.42
2022-08-14T14:11:16.802Z,37.46
2022-08-14T14:13:48.477Z,37.47
2022-08-14T14:16:26.035Z,37.57
2022-08-14T14:19:06.677Z,37.70
2022-08-14T14:21:36.852Z,37.52
2022-08-14T14:24:04.743Z,37.68
2022-08-14T14:26:35.884Z,37.69
2022-08-14T14:29:04.395Z,37.62
2022-08-14T14:31:31.401Z,37.75
2022-08-14T14:34:12.418Z,37.40
2022-08-14T14:36:52.553Z,37.03
2022-08-14T14:39:25.279Z,36.64
2022-08-14T14:41:56.802Z,36.33
2022-08-14T14:44:26.821Z,36.09
2022-08-14T14:46:54.219Z,35.90
2022-08-14T14:49:31.704Z,35.69
2022-08-14T14:52:23.386Z,35.52
2022-08-14T14:54:58.559Z,35.28
2022-08-14T14:57:35.522Z,35.43
2022-08-14T15:00:06.704Z,35.69
2022-08-14T15:02:38.435Z,35.83
2022-08-14T15:05:08.110Z,35.81
2022-08-14T15:07:36.700Z,36.03
2022-08-14T15:10:05.577Z,36.22
2022-08-14T15:12:56.071Z,36.48
2022-08-14T15:15:24.467Z,36.42
2022-08-14T15:17:54.537Z,36.54
2022-08-14T15:20:30.642Z,36.53
2022-08-14T15:23:00.759Z,36.44
2022-08-14T15:25:31.899Z,36.25
2022-08-14T15:28:00.776Z,36.16
2022-08-14T15:30:32.192Z,35.99
2022-08-14T15:32:59.543Z,35.85
2022-08-14T15:35:29.736Z,35.84
2022-08-14T15:38:07.882Z,35.91
2022-08-14T15:40:41.139Z,35.92
2022-08-14T15:43:10.845Z,35.90
2022-08-14T15:45:40.660Z,35.74
2022-08-14T15:48:08.438Z,35.65
2022-08-14T15:50:43.255Z,35.47
2022-08-14T15:53:12.147Z,35.47
2022-08-14T15:55:38.928Z,35.47
2022-08-14T15:58:08.132Z,35.34
2022-08-14T16:00:59.715Z,35.40
2022-08-14T16:03:36.476Z,35.46
2022-08-14T16:06:10.867Z,35.53
2022-08-14T16:08:43.267Z,35.58
2022-08-14T16:11:11.585Z,35.50
2022-08-14T16:13:45.082Z,35.46
2022-08-14T16:16:48.121Z,35.41
2022-08-14T16:19:03.287Z,35.42
2022-08-14T16:21:31.673Z,35.39
2022-08-14T16:24:00.541Z,35.35
2022-08-14T16:26:29.174Z,35.40
2022-08-14T16:29:02.470Z,35.41
2022-08-14T16:31:35.990Z,35.47
2022-08-14T16:34:44.219Z,35.51
2022-08-14T16:36:53.130Z,35.55
2022-08-14T16:39:22.502Z,35.50
2022-08-14T16:41:52.457Z,35.34
2022-08-14T16:44:33.910Z,35.16
2022-08-14T16:47:02.755Z,35.04
2022-08-14T16:50:03.434Z,34.93
2022-08-14T16:52:25.200Z,34.83
2022-08-14T16:55:09.413Z,34.76
2022-08-14T16:57:52.050Z,34.66
2022-08-14T17:00:43.765Z,34.59
2022-08-14T17:03:12.292Z,34.49
2022-08-14T17:05:42.942Z,34.38
2022-08-14T17:08:32.909Z,34.28
2022-08-14T17:10:59.666Z,34.11
2022-08-14T17:13:57.854Z,34.11
2022-08-14T17:16:24.555Z,34.04
2022-08-14T17:19:00.028Z,33.91
2022-08-14T17:21:32.420Z,33.82
2022-08-14T17:24:51.655Z,33.74
2022-08-14T17:26:55.692Z,33.65
2022-08-14T17:29:29.673Z,33.55
2022-08-14T17:32:21.884Z,33.44
2022-08-14T17:34:55.391Z,33.38
2022-08-14T17:37:26.040Z,33.29
2022-08-14T17:40:25.873Z,33.19
2022-08-14T17:43:02.210Z,33.19
2022-08-14T17:45:41.541Z,33.12
2022-08-14T17:49:10.729Z,33.05
2022-08-14T17:51:23.892Z,33.00
2022-08-14T17:54:02.573Z,32.93
2022-08-14T17:56:31.835Z,32.85
2022-08-14T17:59:05.292Z,32.80
2022-08-14T18:01:37.630Z,32.77
2022-08-14T18:04:27.933Z,32.70
2022-08-14T18:06:57.773Z,32.63
2022-08-14T18:09:34.352Z,32.55
2022-08-14T18:12:03.529Z,32.51
2022-08-14T18:14:32.375Z,32.43
2022-08-14T18:17:15.887Z,32.32
2022-08-14T18:19:44.665Z,32.27
2022-08-14T18:22:30.904Z,32.21
2022-08-14T18:24:58.995Z,32.12
2022-08-14T18:27:39.034Z,32.02
2022-08-14T18:30:31.746Z,31.93
2022-08-14T18:32:59.105Z,31.83
2022-08-14T18:35:59.131Z,31.74
2022-08-14T18:38:42.942Z,31.67
2022-08-14T18:41:36.161Z,31.54
2022-08-14T18:44:04.549Z,31.42
2022-08-14T18:47:10.047Z,31.32
2022-08-14T18:50:00.744Z,31.26
2022-08-14T18:52:29.638Z,31.20
2022-08-14T18:54:59.587Z,31.13
2022-08-14T18:57:27.088Z,31.07
2022-08-14T19:00:32.228Z,30.95
2022-08-14T19:03:01.618Z,30.89
2022-08-14T19:05:47.840Z,30.80
2022-08-14T19:08:27.121Z,30.75
2022-08-14T19:11:04.135Z,30.66
2022-08-14T19:13:48.409Z,30.60
2022-08-14T19:16:26.046Z,30.51
2022-08-14T19:19:01.290Z,30.41
2022-08-14T19:21:27.783Z,30.33
2022-08-14T19:24:29.287Z,30.24
2022-08-14T19:27:19.330Z,30.14
2022-08-14T19:29:51.470Z,30.04
2022-08-14T19:32:36.822Z,29.95
2022-08-14T19:35:14.927Z,29.89
2022-08-14T19:37:46.084Z,29.80
2022-08-14T19:40:19.740Z,29.72
2022-08-14T19:42:47.834Z,29.62
2022-08-14T19:45:15.785Z,29.55
2022-08-14T19:47:42.772Z,29.42
2022-08-14T19:50:37.668Z,29.27
2022-08-14T19:53:11.357Z,29.25
2022-08-14T19:55:45.754Z,29.27
2022-08-14T19:58:12.977Z,29.24
2022-08-14T20:00:52.605Z,29.20
2022-08-14T20:03:23.454Z,29.18
2022-08-14T20:06:01.318Z,29.10
2022-08-14T20:11:00.285Z,29.10
2022-08-14T20:11:58.523Z,29.09
2022-08-14T20:14:29.611Z,29.05
2022-08-14T20:17:03.187Z,29.06
2022-08-14T20:19:37.900Z,29.05
2022-08-14T20:22:37.461Z,29.00
2022-08-14T20:24:56.518Z,28.99
2022-08-14T20:27:39.487Z,28.96
2022-08-14T20:30:35.316Z,28.92
2022-08-14T20:33:07.891Z,28.84
2022-08-14T20:35:44.424Z,28.76
2022-08-14T20:38:32.006Z,28.73
2022-08-14T20:41:05.678Z,28.67
2022-08-14T20:43:53.581Z,28.62
2022-08-14T20:46:38.711Z,28.55
2022-08-14T20:49:10.763Z,28.51
2022-08-14T20:51:54.762Z,28.42
2022-08-14T20:54:34.592Z,28.37
2022-08-14T20:57:10.051Z,28.26
2022-08-14T20:59:43.525Z,28.19
2022-08-14T21:02:29.566Z,28.12
2022-08-14T21:05:00.653Z,28.04
2022-08-14T21:07:36.063Z,27.90
2022-08-14T21:10:36.041Z,27.83
2022-08-14T21:13:25.788Z,27.74
2022-08-14T21:15:57.387Z,27.68
2022-08-14T21:18:31.864Z,27.61
2022-08-14T21:21:04.619Z,27.55
2022-08-14T21:23:54.379Z,27.45
2022-08-14T21:26:51.284Z,27.35
2022-08-14T21:29:11.910Z,27.27
2022-08-14T21:31:39.733Z,27.17
2022-08-14T21:34:30.947Z,27.03
2022-08-14T21:36:54.595Z,27.00
2022-08-14T21:39:24.773Z,26.98
2022-08-14T21:41:58.994Z,26.96
2022-08-14T21:44:43.739Z,26.95
2022-08-14T21:47:13.053Z,26.87
2022-08-14T21:49:43.157Z,26.85
2022-08-14T21:52:49.200Z,26.76
2022-08-14T21:55:09.446Z,26.68
2022-08-14T21:58:46.390Z,26.62
2022-08-14T22:00:36.655Z,26.58
2022-08-14T22:03:09.987Z,26.53
2022-08-14T22:05:39.189Z,26.46
2022-08-14T22:08:06.811Z,26.37
2022-08-14T22:10:35.232Z,26.31
2022-08-14T22:13:02.232Z,26.26
2022-08-14T22:15:31.788Z,26.23
2022-08-14T22:17:59.982Z,26.17
2022-08-14T22:20:29.152Z,26.09
2022-08-14T22:23:02.970Z,25.99
2022-08-14T22:25:33.330Z,25.96
2022-08-14T22:28:01.263Z,25.90
2022-08-14T22:30:27.822Z,25.86
2022-08-14T22:32:56.910Z,25.77
2022-08-14T22:35:25.564Z,25.75
2022-08-14T22:38:34.914Z,25.69
2022-08-14T22:41:02.469Z,25.67
2022-08-14T22:43:27.554Z,25.63
2022-08-14T22:45:58.074Z,25.57
2022-08-14T22:48:29.397Z,25.51
2022-08-14T22:50:56.122Z,25.49
2022-08-14T22:53:24.296Z,25.33
2022-08-14T22:55:56.625Z,25.28
2022-08-14T22:58:30.155Z,25.26
2022-08-14T23:01:00.140Z,25.23
2022-08-14T23:03:27.665Z,25.25
2022-08-14T23:05:55.509Z,25.26
2022-08-14T23:08:58.371Z,25.22
2022-08-14T23:11:10.421Z,25.18
2022-08-14T23:13:43.542Z,25.16
2022-08-14T23:16:20.477Z,25.14
2022-08-14T23:18:53.804Z,25.10
2022-08-14T23:21:24.243Z,25.03
2022-08-14T23:23:54.924Z,24.99
2022-08-14T23:26:47.300Z,24.97
2022-08-14T23:29:11.506Z,24.88
2022-08-14T23:31:38.538Z,24.90
2022-08-14T23:34:08.273Z,24.88
2022-08-14T23:36:53.606Z,24.88
2022-08-14T23:39:29.963Z,24.83
2022-08-14T23:42:02.536Z,24.78
2022-08-14T23:44:35.191Z,24.74
2022-08-14T23:47:11.682Z,24.66
2022-08-14T23:50:00.502Z,24.62
2022-08-14T23:52:51.310Z,24.55
2022-08-14T23:55:16.017Z,24.51
2022-08-14T23:57:57.636Z,24.53
